Aeroporto :
LOGIN :

Iscrizione | Disclaimer

   EN    FR    IT 

 










Sommario :    VFR   VFR Marginale   IFR   IFR Intensivo   IFR Molto Intensivo
Visibilità : 
Base nubi : 
>= 8 km
>= 3000ft
5 / 8 km
1000 / 3000 ft
1500m / 5 km
500 / 1000 ft
800 / 1500m
200 / 500 ft
< 800m
< 200 ft
Simboli :   Temporali  Nebbia  Neve Forte  Precipitazioni Forti  Vento > 20 kt
SIGMETs :   Varie  Temporali  Ghiacco  Turbolenza  Onda orograficha  Ceneri Vulcaniche






- Altitudine del aeroporto : 36 ft
- Codice IATA : LTQ


LFAT - Le Touquet

ULTIMO METAR :
  • 181800Z AUTO 03005KT 320V080 CAVOK 17/14 Q1013 TEMPO BKN008

METARs OBSOLETI :
  • 181730Z AUTO 01006KT 9999 -DZ FEW010 OVC064 17/15 Q1013 TEMPO BKN008
  • 181700Z AUTO 04005KT 360V080 9999 -RA FEW010/// BKN060/// OVC096/// ///TCU 17/15 Q1013 TEMPO 4000 RA BKN008
  • 181630Z AUTO 03007KT 9999 FEW010/// BKN062/// OVC082/// ///CB 17/15 Q1013 TEMPO 4000 RA BKN008
  • 181600Z AUTO 02006KT 350V060 9999 -RA FEW009/// SCT050/// OVC060/// ///CB 17/16 Q1013 TEMPO 4000 RA BKN008
  • 181530Z AUTO 02008KT 350V050 8000 -RA SCT008/// SCT014/// OVC030/// ///TCU 17/16 Q1013 TEMPO 4000 RA BKN008
  • 181500Z AUTO 02005KT 350V050 7000 -RA BKN007/// OVC025/// ///TCU 17/17 Q1013 TEMPO 4000 RA BKN020 BKN040 FEW060TCU
  • 181430Z AUTO 36006KT 3600 -RA BR BKN008/// BKN014/// OVC034/// ///TCU 17/17 Q1013 TEMPO RA SCT020 BKN040 FEW060TCU
  • 181400Z AUTO 34005KT 320V020 6000 -RA BKN009/// BKN023/// BKN033/// ///TCU 18/16 Q1013 TEMPO 4000 RA SCT020 BKN040 FEW060TCU
  • 181330Z AUTO 01006KT 9999 -RA FEW009/// SCT016/// OVC033/// ///TCU 18/17 Q1013 TEMPO 4000 RA

TAF TAF LFAT
Valido dal 18 a 15 ore il 19 a 00 ore UTC


181400Z 1815/1824 36010KT 9999 FEW045 OVC100
TEMPO 1815/1821 BKN008
PROB30
TEMPO 1815/1818 4000 RA BKN020 BKN040 FEW060TCU OVC100
BECMG 1823/1824 BKN005
ATIS : +33 3 21 06 62 84



MetMap, La meteo Aeronautica in un colpo d'occhio ! - Copyright ORBIFLY Dicembre 2007 - Disclaimer

ORBIFLY MET'MAP TEAM :

Programmazione e sviluppo : Alexandra Zaïnal
Concezione : Baudouin d'Aumeries
Supporto tecnico e logistico : Manuel Goepfert
Aiuto : Marc-Olivier Méhu
Aiuto per la traduzione : Arnaldo La Scala




FONTI E CREDITI :

   NOAA